createdAt,value
2019-02-12T00:00:43.544Z,97027.84
2019-02-12T00:03:13.040Z,97031.91
2019-02-12T00:05:42.680Z,97034.03
2019-02-12T00:08:12.387Z,97029.47
2019-02-12T00:10:42.049Z,97039.21
2019-02-12T00:13:11.839Z,97030.35
2019-02-12T00:15:41.617Z,97034.73
2019-02-12T00:18:11.252Z,97046.59
2019-02-12T00:20:40.829Z,97057.24
2019-02-12T00:23:10.455Z,97055.30
2019-02-12T00:25:39.940Z,97065.43
2019-02-12T00:28:09.623Z,97072.03
2019-02-12T00:30:39.037Z,97075.41
2019-02-12T00:33:08.699Z,97074.25
2019-02-12T00:35:38.573Z,97070.20
2019-02-12T00:38:08.136Z,97071.22
2019-02-12T00:40:37.808Z,97067.36
2019-02-12T00:43:07.203Z,97071.02
2019-02-12T00:45:36.825Z,97069.80
2019-02-12T00:48:06.609Z,97068.08
2019-02-12T00:50:36.305Z,97069.71
2019-02-12T00:53:05.816Z,97064.03
2019-02-12T00:55:35.535Z,97061.81
2019-02-12T00:58:05.401Z,97064.42
2019-02-12T01:00:34.890Z,97055.47
2019-02-12T01:03:04.298Z,97062.59
2019-02-12T01:05:33.889Z,97066.69
2019-02-12T01:08:03.703Z,97059.98
2019-02-12T01:10:33.455Z,97079.13
2019-02-12T01:13:03.171Z,97090.26
2019-02-12T01:15:32.954Z,97096.28
2019-02-12T01:18:02.543Z,97099.03
2019-02-12T01:20:31.972Z,97089.91
2019-02-12T01:23:01.719Z,97088.67
2019-02-12T01:25:31.426Z,97093.34
2019-02-12T01:28:00.822Z,97092.09
2019-02-12T01:30:30.443Z,97088.28
2019-02-12T01:33:00.183Z,97091.61
2019-02-12T01:35:29.871Z,97094.94
2019-02-12T01:37:59.434Z,97101.48
2019-02-12T01:40:28.843Z,97099.95
2019-02-12T01:42:58.347Z,97100.92
2019-02-12T01:45:27.893Z,97105.83
2019-02-12T01:47:57.664Z,97113.45
2019-02-12T01:50:27.069Z,97129.59
2019-02-12T01:52:56.670Z,97133.73
2019-02-12T01:55:26.313Z,97143.32
2019-02-12T01:57:55.705Z,97148.48
2019-02-12T02:00:25.467Z,97139.77
2019-02-12T02:02:55.214Z,97135.60
2019-02-12T02:05:24.909Z,97129.92
2019-02-12T02:07:54.295Z,97135.91
2019-02-12T02:10:23.741Z,97140.30
2019-02-12T02:12:53.231Z,97138.12
2019-02-12T02:15:22.926Z,97143.47
2019-02-12T02:17:52.509Z,97132.23
2019-02-12T02:20:21.937Z,97134.45
2019-02-12T02:22:51.720Z,97136.48
2019-02-12T02:25:21.464Z,97145.67
2019-02-12T02:27:50.858Z,97145.67
2019-02-12T02:30:20.740Z,97138.88
2019-02-12T02:32:50.321Z,97124.12
2019-02-12T02:35:20.189Z,97135.27
2019-02-12T02:37:49.839Z,97153.61
2019-02-12T02:40:19.581Z,97141.91
2019-02-12T02:42:48.978Z,97150.87
2019-02-12T02:45:18.367Z,97150.28
2019-02-12T02:47:48.123Z,97153.67
2019-02-12T02:50:17.843Z,97166.45
2019-02-12T02:52:47.429Z,97172.30
2019-02-12T02:55:17.112Z,97171.81
2019-02-12T02:57:46.680Z,97174.23
2019-02-12T03:00:16.295Z,97156.38
2019-02-12T03:02:45.761Z,97160.48
2019-02-12T03:05:15.146Z,97163.16
2019-02-12T03:07:44.887Z,97165.37
2019-02-12T03:10:14.453Z,97166.67
2019-02-12T03:12:43.962Z,97171.98
2019-02-12T03:15:13.692Z,97165.92
2019-02-12T03:17:43.577Z,97168.36
2019-02-12T03:20:13.385Z,97172.06
2019-02-12T03:22:43.301Z,97182.33
2019-02-12T03:25:13.069Z,97184.17
2019-02-12T03:27:42.678Z,97194.20
2019-02-12T03:30:12.721Z,97196.08
2019-02-12T03:32:42.874Z,97197.45
2019-02-12T03:35:12.515Z,97198.82
2019-02-12T03:37:42.100Z,97192.33
2019-02-12T03:40:12.168Z,97188.90
2019-02-12T03:42:41.650Z,97196.73
2019-02-12T03:45:11.748Z,97200.08
2019-02-12T03:47:41.143Z,97203.98
2019-02-12T03:50:10.918Z,97197.05
2019-02-12T03:52:40.669Z,97203.91
2019-02-12T03:55:11.196Z,97209.89
2019-02-12T03:57:40.852Z,97209.50
2019-02-12T04:00:12.912Z,97214.23
2019-02-12T04:03:05.623Z,97211.52
2019-02-12T04:05:35.592Z,97216.17
2019-02-12T04:08:05.552Z,97216.17
2019-02-12T04:10:35.338Z,97216.82
2019-02-12T04:13:05.063Z,97218.70
2019-02-12T04:15:34.675Z,97227.47
2019-02-12T04:18:04.497Z,97231.25
2019-02-12T04:20:34.116Z,97235.91
2019-02-12T04:23:03.864Z,97234.45
2019-02-12T04:25:33.559Z,97238.12
2019-02-12T04:28:03.061Z,97238.08
2019-02-12T04:30:32.810Z,97241.63
2019-02-12T04:33:02.495Z,97241.14
2019-02-12T04:35:32.125Z,97240.63
2019-02-12T04:38:01.856Z,97251.72
2019-02-12T04:40:31.456Z,97240.57
2019-02-12T04:43:00.844Z,97234.98
2019-02-12T04:45:30.452Z,97246.20
2019-02-12T04:48:00.235Z,97243.67
2019-02-12T04:50:29.701Z,97248.05
2019-02-12T04:52:59.292Z,97255.95
2019-02-12T04:55:28.862Z,97260.20
2019-02-12T04:57:58.339Z,97259.84
2019-02-12T05:00:28.171Z,97268.03
2019-02-12T05:02:57.685Z,97265.08
2019-02-12T05:05:27.414Z,97270.73
2019-02-12T05:07:57.162Z,97266.38
2019-02-12T05:10:28.072Z,97269.95
2019-02-12T05:12:57.797Z,97269.59
2019-02-12T05:15:27.329Z,97272.73
2019-02-12T05:17:57.072Z,97277.92
2019-02-12T05:20:26.763Z,97286.12
2019-02-12T05:22:56.561Z,97286.63
2019-02-12T05:25:26.384Z,97294.48
2019-02-12T05:27:55.815Z,97294.45
2019-02-12T05:30:25.215Z,97300.62
2019-02-12T05:32:54.744Z,97282.90
2019-02-12T05:35:24.573Z,97291.02
2019-02-12T05:37:54.132Z,97290.59
2019-02-12T05:40:23.750Z,97301.38
2019-02-12T05:42:53.478Z,97297.59
2019-02-12T05:45:23.164Z,97296.27
2019-02-12T05:47:52.805Z,97292.08
2019-02-12T05:50:22.197Z,97286.88
2019-02-12T05:52:54.417Z,97295.98
2019-02-12T05:55:23.246Z,97299.45
2019-02-12T05:57:52.727Z,97305.08
2019-02-12T06:00:24.624Z,97308.91
2019-02-12T06:02:54.297Z,97312.30
2019-02-12T06:05:30.005Z,97304.85
2019-02-12T06:07:59.583Z,97304.34
2019-02-12T06:10:29.369Z,97305.06
2019-02-12T06:12:58.980Z,97314.56
2019-02-12T06:15:28.570Z,97307.16
2019-02-12T06:17:58.469Z,97298.16
2019-02-12T06:20:28.218Z,97306.69
2019-02-12T06:23:03.683Z,97296.16
2019-02-12T06:25:28.965Z,97297.42
2019-02-12T06:27:58.762Z,97302.27
2019-02-12T06:30:28.616Z,97309.37
2019-02-12T06:33:06.999Z,97308.07
2019-02-12T06:35:29.383Z,97309.77
2019-02-12T06:37:59.069Z,97306.26
2019-02-12T06:40:28.638Z,97310.47
2019-02-12T06:42:58.148Z,97309.17
2019-02-12T06:45:27.950Z,97315.20
2019-02-12T06:47:57.352Z,97328.49
2019-02-12T06:50:26.938Z,97340.55
2019-02-12T06:52:56.412Z,97340.79
2019-02-12T06:55:26.322Z,97343.04
2019-02-12T06:57:55.714Z,97350.84
2019-02-12T07:00:25.389Z,97349.98
2019-02-12T07:03:48.163Z,97362.05
2019-02-12T07:06:30.572Z,97368.79
2019-02-12T07:09:30.265Z,97382.13
2019-02-12T07:12:35.559Z,97378.53
2019-02-12T07:15:46.244Z,97380.22
2019-02-12T07:18:55.423Z,97378.41
2019-02-12T07:21:40.375Z,97381.24
2019-02-12T07:24:31.657Z,97385.50
2019-02-12T07:27:51.026Z,97387.55
2019-02-12T07:30:56.300Z,97390.51
2019-02-12T07:34:08.124Z,97388.89
2019-02-12T07:37:17.511Z,97375.51
2019-02-12T07:40:52.246Z,97388.77
2019-02-12T07:43:55.313Z,97386.08
2019-02-12T07:47:10.612Z,97382.84
2019-02-12T07:50:15.936Z,97384.37
2019-02-12T07:53:30.589Z,97384.45
2019-02-12T07:56:18.763Z,97384.18
2019-02-12T07:59:23.254Z,97376.52
2019-02-12T08:02:48.559Z,97385.99
2019-02-12T08:05:54.731Z,97393.03
2019-02-12T08:09:17.090Z,97403.52
2019-02-12T08:12:19.685Z,97395.30
2019-02-12T08:16:00.603Z,97407.48
2019-02-12T08:19:07.036Z,97395.30
2019-02-12T08:22:17.729Z,97415.27
2019-02-12T08:25:20.076Z,97419.09
2019-02-12T08:28:45.521Z,97425.22
2019-02-12T08:31:45.612Z,97421.64
2019-02-12T08:34:50.410Z,97433.52
2019-02-12T08:38:03.358Z,97434.89
2019-02-12T08:41:21.166Z,97436.73
2019-02-12T08:44:31.917Z,97446.73
2019-02-12T08:47:26.862Z,97449.53
2019-02-12T08:50:13.259Z,97453.63
2019-02-12T08:52:57.245Z,97449.34
2019-02-12T08:56:05.084Z,97460.02
2019-02-12T08:59:39.433Z,97465.48
2019-02-12T09:02:51.489Z,97467.14
2019-02-12T09:05:54.388Z,97470.34
2019-02-12T09:08:46.717Z,97470.08
2019-02-12T09:12:05.289Z,97471.98
2019-02-12T09:14:52.489Z,97469.88
2019-02-12T09:17:50.198Z,97476.70
2019-02-12T09:21:08.663Z,97475.87
2019-02-12T09:24:04.514Z,97484.03
2019-02-12T09:27:11.946Z,97481.66
2019-02-12T09:30:12.502Z,97488.38
2019-02-12T09:33:25.041Z,97480.78
2019-02-12T09:36:34.591Z,97489.59
2019-02-12T09:39:31.818Z,97488.89
2019-02-12T09:42:33.984Z,97493.44
2019-02-12T09:45:32.991Z,97498.75
2019-02-12T09:48:38.311Z,97502.83
2019-02-12T09:51:43.021Z,97497.22
2019-02-12T09:54:44.134Z,97494.41
2019-02-12T09:57:42.484Z,97496.66
2019-02-12T10:00:52.044Z,97499.58
2019-02-12T10:03:59.528Z,97507.11
2019-02-12T10:07:01.594Z,97507.78
2019-02-12T10:10:23.240Z,97516.71
2019-02-12T10:13:22.978Z,97524.52
2019-02-12T10:16:31.703Z,97519.59
2019-02-12T10:19:37.919Z,97527.08
2019-02-12T10:22:46.561Z,97527.38
2019-02-12T10:25:32.471Z,97534.23
2019-02-12T10:28:49.187Z,97528.79
2019-02-12T10:31:30.582Z,97532.86
2019-02-12T10:34:00.255Z,97522.34
2019-02-12T10:36:29.984Z,97531.56
2019-02-12T10:38:59.678Z,97525.92
2019-02-12T10:41:29.154Z,97523.20
2019-02-12T10:43:58.950Z,97522.56
2019-02-12T10:46:28.380Z,97527.11
2019-02-12T10:48:57.777Z,97530.03
2019-02-12T10:51:27.335Z,97531.45
2019-02-12T10:53:57.168Z,97540.19
2019-02-12T10:56:26.816Z,97538.17
2019-02-12T10:58:56.326Z,97547.91
2019-02-12T11:01:25.937Z,97540.78
2019-02-12T11:03:55.454Z,97546.71
2019-02-12T11:06:24.883Z,97548.41
2019-02-12T11:08:54.454Z,97552.76
2019-02-12T11:11:24.212Z,97557.06
2019-02-12T11:13:54.007Z,97560.63
2019-02-12T11:16:23.666Z,97565.42
2019-02-12T11:18:53.394Z,97579.16
2019-02-12T11:21:22.996Z,97575.09
2019-02-12T11:23:52.488Z,97580.16
2019-02-12T11:26:21.949Z,97586.32
2019-02-12T11:28:51.424Z,97588.83
2019-02-12T11:31:21.002Z,97598.65
2019-02-12T11:33:50.603Z,97595.74
2019-02-12T11:36:20.339Z,97601.74
2019-02-12T11:38:50.061Z,97603.45
2019-02-12T11:41:19.606Z,97616.82
2019-02-12T11:43:49.174Z,97612.08
2019-02-12T11:46:18.804Z,97619.75
2019-02-12T11:48:48.619Z,97618.28
2019-02-12T11:51:18.265Z,97626.67
2019-02-12T11:53:47.829Z,97634.86
2019-02-12T11:56:17.550Z,97635.63
2019-02-12T11:58:48.518Z,97635.23
2019-02-12T12:01:21.335Z,97645.05
2019-02-12T12:03:51.069Z,97647.72
2019-02-12T12:06:20.854Z,97646.80
2019-02-12T12:08:50.326Z,97655.91
2019-02-12T12:11:19.746Z,97661.31
2019-02-12T12:13:49.552Z,97657.70
2019-02-12T12:16:19.017Z,97656.78
2019-02-12T12:18:48.411Z,97657.91
2019-02-12T12:21:17.973Z,97663.93
2019-02-12T12:23:47.586Z,97656.89
2019-02-12T12:26:17.364Z,97659.02
2019-02-12T12:28:47.056Z,97664.13
2019-02-12T12:31:16.797Z,97664.08
2019-02-12T12:33:46.565Z,97673.98
2019-02-12T12:36:16.349Z,97674.97
2019-02-12T12:38:45.923Z,97677.69
2019-02-12T12:41:15.605Z,97695.88
2019-02-12T12:43:45.319Z,97702.27
2019-02-12T12:46:15.150Z,97697.36
2019-02-12T12:48:44.786Z,97700.42
2019-02-12T12:51:14.566Z,97704.20
2019-02-12T12:53:43.976Z,97712.32
2019-02-12T12:56:13.415Z,97707.76
2019-02-12T12:58:43.011Z,97709.23
2019-02-12T13:01:12.546Z,97723.73
2019-02-12T13:03:42.086Z,97713.48
2019-02-12T13:06:11.855Z,97727.30
2019-02-12T13:08:41.433Z,97725.48
2019-02-12T13:11:11.108Z,97728.10
2019-02-12T13:13:40.689Z,97728.22
2019-02-12T13:16:10.462Z,97731.48
2019-02-12T13:18:40.072Z,97736.81
2019-02-12T13:21:09.720Z,97739.66
2019-02-12T13:23:39.750Z,97741.23
2019-02-12T13:26:09.418Z,97748.34
2019-02-12T13:28:39.186Z,97755.08
2019-02-12T13:31:08.876Z,97753.20
2019-02-12T13:33:38.498Z,97760.64
2019-02-12T13:36:08.122Z,97759.11
2019-02-12T13:38:38.087Z,97770.14
2019-02-12T13:41:07.820Z,97770.19
2019-02-12T13:43:37.293Z,97770.44
2019-02-12T13:46:07.096Z,97776.73
2019-02-12T13:48:36.851Z,97779.59
2019-02-12T13:51:06.574Z,97781.47
2019-02-12T13:53:36.148Z,97791.31
2019-02-12T13:56:05.877Z,97788.11
2019-02-12T13:58:35.570Z,97805.11
2019-02-12T14:01:05.667Z,97803.80
2019-02-12T14:03:35.507Z,97810.65
2019-02-12T14:06:05.271Z,97815.53
2019-02-12T14:08:34.915Z,97820.11
2019-02-12T14:11:04.772Z,97825.42
2019-02-12T14:13:34.608Z,97822.91
2019-02-12T14:16:04.043Z,97822.59
2019-02-12T14:18:33.654Z,97830.69
2019-02-12T14:21:03.277Z,97838.20
2019-02-12T14:23:32.983Z,97842.68
2019-02-12T14:26:02.454Z,97851.91
2019-02-12T14:28:32.052Z,97853.33
2019-02-12T14:31:01.851Z,97860.65
2019-02-12T14:33:31.705Z,97866.98
2019-02-12T14:36:01.141Z,97862.62
2019-02-12T14:38:30.791Z,97869.52
2019-02-12T14:41:00.516Z,97880.62
2019-02-12T14:43:30.236Z,97889.66
2019-02-12T14:46:01.949Z,97889.69
2019-02-12T14:48:31.748Z,97894.88
2019-02-12T14:51:01.505Z,97908.44
2019-02-12T14:53:31.084Z,97903.80
2019-02-12T14:56:00.639Z,97905.89
2019-02-12T14:58:30.178Z,97913.47
2019-02-12T15:01:00.052Z,97913.90
2019-02-12T15:03:29.733Z,97918.45
2019-02-12T15:05:59.427Z,97921.73
2019-02-12T15:08:29.637Z,97933.44
2019-02-12T15:10:59.370Z,97928.81
2019-02-12T15:13:28.912Z,97927.17
2019-02-12T15:15:58.458Z,97938.69
2019-02-12T15:18:28.301Z,97937.20
2019-02-12T15:20:58.045Z,97939.19
2019-02-12T15:23:27.736Z,97945.33
2019-02-12T15:25:57.450Z,97957.13
2019-02-12T15:28:27.040Z,97951.62
2019-02-12T15:30:57.166Z,97970.39
2019-02-12T15:33:27.033Z,97959.02
2019-02-12T15:35:56.451Z,97960.45
2019-02-12T15:38:26.152Z,97966.61
2019-02-12T15:40:56.065Z,97961.83
2019-02-12T15:43:26.028Z,97967.48
2019-02-12T15:45:55.615Z,97982.24
2019-02-12T15:48:24.992Z,97987.56
2019-02-12T15:50:54.792Z,97989.75
2019-02-12T15:53:24.454Z,97983.23
2019-02-12T15:55:54.037Z,97992.86
2019-02-12T15:58:24.264Z,98001.13
2019-02-12T16:00:53.856Z,98008.95
2019-02-12T16:03:23.253Z,98002.38
2019-02-12T16:05:54.654Z,98012.56
2019-02-12T16:08:24.252Z,98019.47
2019-02-12T16:10:55.170Z,98023.72
2019-02-12T16:13:25.650Z,98031.12
2019-02-12T16:15:55.481Z,98039.05
2019-02-12T16:18:25.226Z,98042.55
2019-02-12T16:20:54.687Z,98049.91
2019-02-12T16:23:24.072Z,98051.20
2019-02-12T16:25:59.372Z,98063.89
2019-02-12T16:28:25.236Z,98069.94
2019-02-12T16:30:54.855Z,98069.64
2019-02-12T16:33:24.590Z,98082.20
2019-02-12T16:35:54.242Z,98090.55
2019-02-12T16:38:24.015Z,98091.36
2019-02-12T16:40:53.786Z,98100.97
2019-02-12T16:43:23.615Z,98110.97
2019-02-12T16:46:01.006Z,98113.57
2019-02-12T16:48:30.429Z,98116.58
2019-02-12T16:51:02.510Z,98127.56
2019-02-12T16:53:32.135Z,98139.29
2019-02-12T16:56:08.123Z,98136.22
2019-02-12T16:58:32.964Z,98142.70
2019-02-12T17:01:04.530Z,98148.83
2019-02-12T17:03:34.017Z,98146.33
2019-02-12T17:06:03.787Z,98154.66
2019-02-12T17:08:34.848Z,98162.45
2019-02-12T17:11:04.531Z,98161.56
2019-02-12T17:13:34.342Z,98168.55
2019-02-12T17:16:04.382Z,98177.20
2019-02-12T17:18:34.136Z,98175.84
2019-02-12T17:21:06.293Z,98175.89
2019-02-12T17:23:35.975Z,98186.25
2019-02-12T17:26:05.724Z,98191.90
2019-02-12T17:28:35.517Z,98193.59
2019-02-12T17:31:05.439Z,98201.00
2019-02-12T17:33:34.819Z,98209.76
2019-02-12T17:36:04.436Z,98210.67
2019-02-12T17:38:33.994Z,98214.60
2019-02-12T17:41:03.857Z,98212.88
2019-02-12T17:43:33.757Z,98214.60
2019-02-12T17:46:03.446Z,98221.56
2019-02-12T17:48:32.953Z,98221.59
2019-02-12T17:51:03.006Z,98218.16
2019-02-12T17:53:32.834Z,98228.13
2019-02-12T17:56:02.724Z,98226.32
2019-02-12T17:58:32.750Z,98226.38
2019-02-12T18:01:04.084Z,98228.97
2019-02-12T18:03:33.577Z,98232.48
2019-02-12T18:06:03.096Z,98232.51
2019-02-12T18:08:32.788Z,98229.05
2019-02-12T18:11:02.718Z,98231.25
2019-02-12T18:13:32.664Z,98227.78
2019-02-12T18:16:02.100Z,98242.98
2019-02-12T18:18:33.091Z,98232.13
2019-02-12T18:21:02.527Z,98231.68
2019-02-12T18:23:32.136Z,98238.61
2019-02-12T18:26:01.757Z,98251.21
2019-02-12T18:28:31.285Z,98255.04
2019-02-12T18:31:01.116Z,98255.52
2019-02-12T18:33:30.857Z,98259.02
2019-02-12T18:36:00.636Z,98259.06
2019-02-12T18:38:30.242Z,98259.02
2019-02-12T18:41:00.006Z,98257.23
2019-02-12T18:43:29.766Z,98267.61
2019-02-12T18:45:59.242Z,98268.39
2019-02-12T18:48:30.013Z,98271.52
2019-02-12T18:50:59.809Z,98271.09
2019-02-12T18:53:29.507Z,98274.96
2019-02-12T18:55:58.966Z,98282.34
2019-02-12T18:58:28.969Z,98273.28
2019-02-12T19:00:58.452Z,98283.68
2019-02-12T19:03:28.253Z,98281.97
2019-02-12T19:05:57.949Z,98282.84
2019-02-12T19:08:28.464Z,98289.37
2019-02-12T19:10:58.248Z,98300.63
2019-02-12T19:13:29.707Z,98293.67
2019-02-12T19:15:59.142Z,98296.28
2019-02-12T19:18:29.066Z,98295.39
2019-02-12T19:20:58.800Z,98301.05
2019-02-12T19:23:28.607Z,98306.24
2019-02-12T19:25:58.368Z,98304.08
2019-02-12T19:28:28.302Z,98310.98
2019-02-12T19:30:57.761Z,98307.11
2019-02-12T19:33:27.370Z,98312.33
2019-02-12T19:35:56.937Z,98315.38
2019-02-12T19:38:26.665Z,98320.16
2019-02-12T19:40:58.535Z,98326.66
2019-02-12T19:43:30.461Z,98328.79
2019-02-12T19:46:01.282Z,98328.38
2019-02-12T19:48:30.915Z,98336.62
2019-02-12T19:51:00.654Z,98334.88
2019-02-12T19:53:30.185Z,98340.48
2019-02-12T19:55:59.981Z,98343.50
2019-02-12T19:58:29.452Z,98343.92
2019-02-12T20:00:58.831Z,98345.23
2019-02-12T20:03:29.284Z,98347.83
2019-02-12T20:05:58.801Z,98346.08
2019-02-12T20:08:28.848Z,98348.25
2019-02-12T20:10:59.027Z,98344.75
2019-02-12T20:13:28.830Z,98339.20
2019-02-12T20:15:58.521Z,98336.59
2019-02-12T20:18:29.246Z,98340.08
2019-02-12T20:20:59.474Z,98331.40
2019-02-12T20:23:29.177Z,98343.55
2019-02-12T20:25:59.776Z,98343.10
2019-02-12T20:28:29.208Z,98343.10
2019-02-12T20:30:58.658Z,98340.50
2019-02-12T20:33:28.519Z,98343.55
2019-02-12T20:35:57.940Z,98348.75
2019-02-12T20:38:27.528Z,98350.48
2019-02-12T20:40:57.360Z,98348.73
2019-02-12T20:43:27.032Z,98347.47
2019-02-12T20:45:56.775Z,98355.24
2019-02-12T20:48:26.394Z,98356.55
2019-02-12T20:50:56.053Z,98354.84
2019-02-12T20:53:25.962Z,98358.28
2019-02-12T20:55:55.636Z,98355.27
2019-02-12T20:58:25.120Z,98353.55
2019-02-12T21:00:54.791Z,98357.86
2019-02-12T21:03:24.368Z,98362.63
2019-02-12T21:05:53.809Z,98359.60
2019-02-12T21:08:23.581Z,98363.50
2019-02-12T21:10:53.185Z,98362.22
2019-02-12T21:13:22.747Z,98369.98
2019-02-12T21:15:52.390Z,98368.25
2019-02-12T21:18:22.045Z,98371.73
2019-02-12T21:20:51.667Z,98373.46
2019-02-12T21:23:21.523Z,98373.44
2019-02-12T21:25:51.156Z,98374.74
2019-02-12T21:28:20.743Z,98378.19
2019-02-12T21:30:50.583Z,98381.24
2019-02-12T21:33:20.442Z,98388.17
2019-02-12T21:35:50.202Z,98389.47
2019-02-12T21:38:20.584Z,98393.36
2019-02-12T21:40:50.156Z,98393.37
2019-02-12T21:43:19.642Z,98398.55
2019-02-12T21:45:49.349Z,98405.04
2019-02-12T21:48:18.740Z,98396.81
2019-02-12T21:50:48.414Z,98398.98
2019-02-12T21:53:18.111Z,98400.70
2019-02-12T21:55:47.529Z,98411.08
2019-02-12T21:58:17.171Z,98407.64
2019-02-12T22:00:46.984Z,98395.96
2019-02-12T22:03:16.497Z,98420.61
2019-02-12T22:05:46.274Z,98412.37
2019-02-12T22:08:15.945Z,98416.69
2019-02-12T22:10:46.651Z,98413.66
2019-02-12T22:13:16.147Z,98422.72
2019-02-12T22:15:45.829Z,98423.59
2019-02-12T22:18:15.586Z,98418.83
2019-02-12T22:20:45.053Z,98419.25
2019-02-12T22:23:14.547Z,98428.36
2019-02-12T22:25:43.992Z,98432.70
2019-02-12T22:28:13.495Z,98429.66
2019-02-12T22:30:43.176Z,98434.00
2019-02-12T22:33:12.799Z,98442.66
2019-02-12T22:35:42.408Z,98436.17
2019-02-12T22:38:12.010Z,98446.53
2019-02-12T22:40:41.732Z,98447.86
2019-02-12T22:43:11.436Z,98450.45
2019-02-12T22:45:41.132Z,98453.50
2019-02-12T22:48:10.883Z,98459.08
2019-02-12T22:50:40.418Z,98462.55
2019-02-12T22:53:10.175Z,98462.13
2019-02-12T22:55:39.878Z,98464.70
2019-02-12T22:58:09.458Z,98466.45
2019-02-12T23:00:53.255Z,98466.45
2019-02-12T23:03:23.615Z,98466.41
2019-02-12T23:05:53.160Z,98469.88
2019-02-12T23:08:22.735Z,98477.63
2019-02-12T23:10:52.318Z,98481.98
2019-02-12T23:13:22.408Z,98482.86
2019-02-12T23:15:51.828Z,98487.17
2019-02-12T23:18:21.558Z,98483.70
2019-02-12T23:20:51.380Z,98491.52
2019-02-12T23:23:20.789Z,98490.22
2019-02-12T23:25:50.627Z,98477.67
2019-02-12T23:28:20.356Z,98487.62
2019-02-12T23:30:49.866Z,98496.25
2019-02-12T23:33:19.437Z,98494.54
2019-02-12T23:35:49.143Z,98497.13
2019-02-12T23:38:18.823Z,98503.20
2019-02-12T23:40:48.258Z,98505.34
2019-02-12T23:43:17.636Z,98508.84
2019-02-12T23:45:47.080Z,98510.57
2019-02-12T23:48:16.824Z,98510.98
2019-02-12T23:50:46.255Z,98515.72
2019-02-12T23:53:15.888Z,98513.95
2019-02-12T23:55:45.644Z,98514.37
2019-02-12T23:58:15.240Z,98514.37
